createdAt,value
2022-09-15T00:01:12.611Z,100608.97
2022-09-15T00:03:40.628Z,100609.84
2022-09-15T00:06:09.603Z,100602.81
2022-09-15T00:08:37.243Z,100601.94
2022-09-15T00:11:16.023Z,100607.25
2022-09-15T00:13:43.262Z,100609.06
2022-09-15T00:16:15.262Z,100606.44
2022-09-15T00:18:44.224Z,100615.34
2022-09-15T00:21:19.108Z,100613.53
2022-09-15T00:23:47.383Z,100609.13
2022-09-15T00:26:18.232Z,100613.56
2022-09-15T00:28:46.075Z,100616.13
2022-09-15T00:31:17.630Z,100622.28
2022-09-15T00:33:52.541Z,100607.38
2022-09-15T00:36:21.324Z,100601.28
2022-09-15T00:38:48.688Z,100614.47
2022-09-15T00:41:20.719Z,100610.97
2022-09-15T00:43:57.710Z,100608.31
2022-09-15T00:46:39.686Z,100608.31
2022-09-15T00:49:22.315Z,100603.94
2022-09-15T00:52:10.335Z,100612.69
2022-09-15T00:55:15.949Z,100602.19
2022-09-15T00:58:11.333Z,100602.19
2022-09-15T01:00:56.792Z,100601.28
2022-09-15T01:03:26.264Z,100603.00
2022-09-15T01:06:03.081Z,100595.03
2022-09-15T01:08:54.373Z,100590.66
2022-09-15T01:11:21.499Z,100593.25
2022-09-15T01:13:49.017Z,100590.56
2022-09-15T01:16:58.387Z,100596.66
2022-09-15T01:19:56.184Z,100591.34
2022-09-15T01:22:38.017Z,100592.19
2022-09-15T01:25:35.305Z,100592.09
2022-09-15T01:28:23.469Z,100599.13
2022-09-15T01:31:03.357Z,100604.41
2022-09-15T01:34:22.858Z,100602.59
2022-09-15T01:37:03.008Z,100608.78
2022-09-15T01:39:39.919Z,100607.81
2022-09-15T01:42:12.724Z,100612.25
2022-09-15T01:44:52.074Z,100607.81
2022-09-15T01:47:21.089Z,100615.72
2022-09-15T01:50:09.479Z,100614.00
2022-09-15T01:52:40.196Z,100607.75
2022-09-15T01:55:42.096Z,100610.38
2022-09-15T01:58:09.549Z,100606.06
2022-09-15T02:00:45.993Z,100599.81
2022-09-15T02:03:33.684Z,100602.47
2022-09-15T02:06:09.066Z,100591.09
2022-09-15T02:08:50.247Z,100600.84
2022-09-15T02:11:21.355Z,100607.09
2022-09-15T02:14:03.824Z,100600.97
2022-09-15T02:16:35.347Z,100600.94
2022-09-15T02:19:31.134Z,100600.19
2022-09-15T02:22:20.323Z,100593.16
2022-09-15T02:24:57.919Z,100586.19
2022-09-15T02:27:29.030Z,100586.19
2022-09-15T02:30:03.213Z,100585.31
2022-09-15T02:32:32.279Z,100581.75
2022-09-15T02:35:04.732Z,100583.50
2022-09-15T02:37:32.408Z,100593.16
2022-09-15T02:40:01.297Z,100587.88
2022-09-15T02:42:31.573Z,100594.00
2022-09-15T02:45:00.911Z,100593.13
2022-09-15T02:47:29.039Z,100599.28
2022-09-15T02:49:57.137Z,100602.81
2022-09-15T02:52:24.474Z,100610.72
2022-09-15T02:54:51.415Z,100606.34
2022-09-15T02:57:18.424Z,100611.59
2022-09-15T03:00:04.802Z,100607.19
2022-09-15T03:02:32.295Z,100604.59
2022-09-15T03:04:59.322Z,100611.59
2022-09-15T03:07:28.655Z,100616.00
2022-09-15T03:09:55.840Z,100614.22
2022-09-15T03:12:23.154Z,100611.56
2022-09-15T03:14:50.729Z,100613.34
2022-09-15T03:17:18.410Z,100627.53
2022-09-15T03:19:45.613Z,100619.63
2022-09-15T03:22:12.658Z,100625.88
2022-09-15T03:24:40.260Z,100621.50
2022-09-15T03:27:07.349Z,100624.25
2022-09-15T03:29:34.332Z,100629.56
2022-09-15T03:32:01.885Z,100634.75
2022-09-15T03:34:29.467Z,100623.41
2022-09-15T03:36:56.586Z,100624.25
2022-09-15T03:39:24.436Z,100621.66
2022-09-15T03:41:51.388Z,100620.81
2022-09-15T03:44:18.753Z,100624.38
2022-09-15T03:46:45.858Z,100618.19
2022-09-15T03:49:13.455Z,100616.47
2022-09-15T03:51:41.194Z,100612.94
2022-09-15T03:54:08.614Z,100611.19
2022-09-15T03:56:35.894Z,100621.69
2022-09-15T03:59:05.718Z,100617.22
2022-09-15T04:01:33.771Z,100616.34
2022-09-15T04:04:00.995Z,100611.00
2022-09-15T04:06:28.616Z,100612.72
2022-09-15T04:08:55.685Z,100619.75
2022-09-15T04:11:23.575Z,100619.75
2022-09-15T04:13:52.376Z,100628.44
2022-09-15T04:16:25.979Z,100626.69
2022-09-15T04:18:53.477Z,100631.06
2022-09-15T04:21:24.184Z,100629.31
2022-09-15T04:23:52.000Z,100627.63
2022-09-15T04:26:33.901Z,100624.09
2022-09-15T04:29:04.453Z,100622.31
2022-09-15T04:31:34.105Z,100626.72
2022-09-15T04:34:01.429Z,100628.47
2022-09-15T04:36:29.536Z,100633.78
2022-09-15T04:38:57.662Z,100640.81
2022-09-15T04:41:27.513Z,100635.53
2022-09-15T04:43:55.285Z,100625.06
2022-09-15T04:46:22.412Z,100629.38
2022-09-15T04:48:49.591Z,100625.84
2022-09-15T04:51:19.840Z,100626.72
2022-09-15T04:53:47.346Z,100634.59
2022-09-15T04:56:23.130Z,100637.22
2022-09-15T04:58:54.089Z,100636.34
2022-09-15T05:01:28.897Z,100631.00
2022-09-15T05:03:56.301Z,100633.63
2022-09-15T05:06:27.033Z,100636.25
2022-09-15T05:08:57.706Z,100641.53
2022-09-15T05:11:26.154Z,100641.47
2022-09-15T05:13:54.073Z,100648.47
2022-09-15T05:16:26.302Z,100632.59
2022-09-15T05:18:59.680Z,100645.78
2022-09-15T05:21:27.743Z,100638.69
2022-09-15T05:23:55.135Z,100632.50
2022-09-15T05:26:28.339Z,100637.78
2022-09-15T05:28:57.238Z,100637.78
2022-09-15T05:31:28.672Z,100629.91
2022-09-15T05:33:55.838Z,100626.28
2022-09-15T05:36:27.501Z,100622.72
2022-09-15T05:38:56.671Z,100640.28
2022-09-15T05:41:25.631Z,100636.69
2022-09-15T05:43:53.596Z,100634.91
2022-09-15T05:46:20.987Z,100634.88
2022-09-15T05:48:48.760Z,100646.34
2022-09-15T05:51:15.908Z,100645.31
2022-09-15T05:53:42.969Z,100647.16
2022-09-15T05:56:16.344Z,100655.97
2022-09-15T05:58:46.909Z,100663.94
2022-09-15T06:01:21.053Z,100665.50
2022-09-15T06:03:49.136Z,100665.53
2022-09-15T06:06:16.441Z,100669.88
2022-09-15T06:08:54.043Z,100673.28
2022-09-15T06:11:27.917Z,100673.31
2022-09-15T06:13:55.088Z,100677.72
2022-09-15T06:16:24.495Z,100679.38
2022-09-15T06:18:53.415Z,100680.25
2022-09-15T06:21:27.299Z,100684.63
2022-09-15T06:24:00.755Z,100676.66
2022-09-15T06:26:28.913Z,100678.31
2022-09-15T06:28:59.341Z,100689.63
2022-09-15T06:31:29.205Z,100693.84
2022-09-15T06:33:57.778Z,100697.03
2022-09-15T06:36:28.494Z,100698.69
2022-09-15T06:38:56.694Z,100698.63
2022-09-15T06:41:24.693Z,100705.47
2022-09-15T06:43:52.528Z,100701.78
2022-09-15T06:46:23.076Z,100705.38
2022-09-15T06:48:51.878Z,100704.44
2022-09-15T06:51:22.333Z,100709.53
2022-09-15T06:53:49.916Z,100714.44
2022-09-15T06:56:22.519Z,100709.19
2022-09-15T06:58:50.246Z,100708.97
2022-09-15T07:01:25.302Z,100713.84
2022-09-15T07:03:53.572Z,100716.19
2022-09-15T07:06:21.465Z,100717.75
2022-09-15T07:08:49.930Z,100723.91
2022-09-15T07:11:18.313Z,100728.81
2022-09-15T07:13:45.595Z,100734.78
2022-09-15T07:16:14.223Z,100739.16
2022-09-15T07:18:43.454Z,100733.53
2022-09-15T07:21:17.260Z,100740.47
2022-09-15T07:23:44.871Z,100737.53
2022-09-15T07:26:14.835Z,100738.13
2022-09-15T07:28:45.727Z,100737.88
2022-09-15T07:31:17.785Z,100743.00
2022-09-15T07:33:45.392Z,100737.63
2022-09-15T07:36:13.134Z,100741.22
2022-09-15T07:38:44.445Z,100736.47
2022-09-15T07:41:15.231Z,100746.34
2022-09-15T07:43:47.514Z,100746.16
2022-09-15T07:46:15.353Z,100749.59
2022-09-15T07:48:45.981Z,100757.03
2022-09-15T07:51:14.330Z,100746.75
2022-09-15T07:53:42.271Z,100749.69
2022-09-15T07:56:09.611Z,100748.22
2022-09-15T07:58:36.602Z,100757.50
2022-09-15T08:01:11.597Z,100754.81
2022-09-15T08:03:57.269Z,100749.22
2022-09-15T08:06:26.903Z,100757.31
2022-09-15T08:08:59.977Z,100753.16
2022-09-15T08:11:28.407Z,100752.19
2022-09-15T08:13:55.572Z,100754.53
2022-09-15T08:16:24.715Z,100763.22
2022-09-15T08:18:55.460Z,100761.25
2022-09-15T08:21:23.368Z,100758.75
2022-09-15T08:23:59.758Z,100759.75
2022-09-15T08:26:29.121Z,100767.50
2022-09-15T08:28:56.577Z,100770.75
2022-09-15T08:31:25.104Z,100772.72
2022-09-15T08:33:54.703Z,100771.38
2022-09-15T08:36:22.621Z,100767.47
2022-09-15T08:38:49.645Z,100775.06
2022-09-15T08:41:29.489Z,100774.59
2022-09-15T08:44:11.159Z,100789.78
2022-09-15T08:46:49.230Z,100786.69
2022-09-15T08:49:47.520Z,100788.31
2022-09-15T08:52:36.295Z,100785.84
2022-09-15T08:55:28.712Z,100785.63
2022-09-15T08:57:56.086Z,100797.16
2022-09-15T09:00:26.927Z,100787.91
2022-09-15T09:02:59.724Z,100804.84
2022-09-15T09:05:57.300Z,100801.50
2022-09-15T09:08:47.614Z,100791.31
2022-09-15T09:11:33.641Z,100792.25
2022-09-15T09:14:42.739Z,100798.78
2022-09-15T09:17:31.590Z,100807.66
2022-09-15T09:20:41.322Z,100801.13
2022-09-15T09:23:17.869Z,100806.72
2022-09-15T09:25:45.711Z,100806.88
2022-09-15T09:28:38.979Z,100804.94
2022-09-15T09:31:15.772Z,100801.03
2022-09-15T09:33:52.053Z,100802.91
2022-09-15T09:36:19.661Z,100795.72
2022-09-15T09:38:48.906Z,100802.94
2022-09-15T09:41:25.505Z,100797.75
2022-09-15T09:43:55.943Z,100794.00
2022-09-15T09:46:23.068Z,100800.75
2022-09-15T09:49:01.332Z,100785.78
2022-09-15T09:51:48.142Z,100787.94
2022-09-15T09:54:20.855Z,100789.91
2022-09-15T09:56:53.653Z,100788.13
2022-09-15T09:59:49.448Z,100787.75
2022-09-15T10:02:24.720Z,100782.31
2022-09-15T10:04:52.653Z,100790.38
2022-09-15T10:07:24.854Z,100784.63
2022-09-15T10:10:02.285Z,100777.06
2022-09-15T10:12:34.482Z,100768.97
2022-09-15T10:15:06.751Z,100775.69
2022-09-15T10:17:36.620Z,100773.66
2022-09-15T10:20:06.446Z,100779.50
2022-09-15T10:22:38.548Z,100779.78
2022-09-15T10:25:39.732Z,100783.06
2022-09-15T10:28:19.902Z,100779.13
2022-09-15T10:31:05.330Z,100786.75
2022-09-15T10:33:50.740Z,100780.13
2022-09-15T10:36:31.980Z,100793.50
2022-09-15T10:39:21.684Z,100791.88
2022-09-15T10:42:16.756Z,100804.56
2022-09-15T10:45:01.770Z,100824.50
2022-09-15T10:47:55.651Z,100825.56
2022-09-15T10:50:22.617Z,100844.16
2022-09-15T10:53:27.853Z,100830.81
2022-09-15T10:55:54.690Z,100843.34
2022-09-15T10:59:26.379Z,100847.50
2022-09-15T11:02:21.954Z,100836.59
2022-09-15T11:05:05.596Z,100827.94
2022-09-15T11:08:14.180Z,100834.44
2022-09-15T11:10:54.639Z,100827.69
2022-09-15T11:13:47.821Z,100826.06
2022-09-15T11:16:56.902Z,100826.75
2022-09-15T11:20:24.069Z,100846.34
2022-09-15T11:23:04.044Z,100841.44
2022-09-15T11:25:35.878Z,100841.09
2022-09-15T11:28:42.971Z,100843.13
2022-09-15T11:31:24.997Z,100838.09
2022-09-15T11:34:03.455Z,100849.41
2022-09-15T11:36:45.484Z,100838.22
2022-09-15T11:39:26.141Z,100844.53
2022-09-15T11:41:58.822Z,100851.19
2022-09-15T11:44:36.411Z,100852.81
2022-09-15T11:47:40.787Z,100848.69
2022-09-15T11:50:24.384Z,100844.56
2022-09-15T11:53:16.831Z,100839.94
2022-09-15T11:56:16.086Z,100840.22
2022-09-15T11:59:20.910Z,100836.69
2022-09-15T12:02:07.952Z,100842.53
2022-09-15T12:05:03.802Z,100832.78
2022-09-15T12:07:41.030Z,100828.38
2022-09-15T12:10:43.539Z,100818.28
2022-09-15T12:13:19.884Z,100826.69
2022-09-15T12:15:48.817Z,100826.78
2022-09-15T12:18:40.207Z,100821.81
2022-09-15T12:21:19.641Z,100825.50
2022-09-15T12:24:16.712Z,100818.75
2022-09-15T12:26:46.612Z,100818.91
2022-09-15T12:29:31.275Z,100819.41
2022-09-15T12:32:27.759Z,100812.16
2022-09-15T12:35:15.695Z,100818.91
2022-09-15T12:37:46.615Z,100821.44
2022-09-15T12:40:42.106Z,100814.31
2022-09-15T12:43:12.976Z,100811.91
2022-09-15T12:45:43.832Z,100815.22
2022-09-15T12:48:29.215Z,100809.09
2022-09-15T12:51:07.491Z,100813.09
2022-09-15T12:53:38.225Z,100806.91
2022-09-15T12:56:10.488Z,100809.81
2022-09-15T12:58:47.075Z,100808.94
2022-09-15T13:01:26.134Z,100808.88
2022-09-15T13:03:57.995Z,100799.75
2022-09-15T13:06:35.102Z,100812.41
2022-09-15T13:09:02.019Z,100805.91
2022-09-15T13:11:37.389Z,100815.94
2022-09-15T13:14:06.927Z,100811.41
2022-09-15T13:16:46.212Z,100803.47
2022-09-15T13:19:44.300Z,100803.28
2022-09-15T13:22:11.198Z,100806.06
2022-09-15T13:24:44.774Z,100814.66
2022-09-15T13:27:14.574Z,100794.22
2022-09-15T13:29:48.851Z,100794.84
2022-09-15T13:32:28.025Z,100798.81
2022-09-15T13:35:21.908Z,100805.50
2022-09-15T13:38:52.474Z,100802.13
2022-09-15T13:41:52.890Z,100803.97
2022-09-15T13:44:52.571Z,100804.94
2022-09-15T13:48:10.317Z,100801.84
2022-09-15T13:50:41.911Z,100797.34
2022-09-15T13:53:52.567Z,100801.94
2022-09-15T13:56:32.139Z,100792.56
2022-09-15T13:59:08.629Z,100799.25
2022-09-15T14:01:42.165Z,100792.66
2022-09-15T14:04:20.724Z,100798.81
2022-09-15T14:06:54.989Z,100789.47
2022-09-15T14:09:34.122Z,100796.22
2022-09-15T14:12:11.474Z,100817.13
2022-09-15T14:14:42.328Z,100817.84
2022-09-15T14:17:28.818Z,100821.88
2022-09-15T14:20:00.856Z,100810.06
2022-09-15T14:22:33.454Z,100813.97
2022-09-15T14:25:08.412Z,100812.88
2022-09-15T14:27:43.002Z,100799.66
2022-09-15T14:30:29.358Z,100815.81
2022-09-15T14:33:02.187Z,100809.34
2022-09-15T14:35:37.455Z,100818.69
2022-09-15T14:38:04.694Z,100804.03
2022-09-15T14:40:39.381Z,100812.28
2022-09-15T14:43:32.110Z,100823.56
2022-09-15T14:46:13.464Z,100828.44
2022-09-15T14:48:43.088Z,100826.00
2022-09-15T14:51:33.038Z,100828.81
2022-09-15T14:54:01.684Z,100826.22
2022-09-15T14:56:40.897Z,100826.88
2022-09-15T14:59:19.432Z,100827.94
2022-09-15T15:02:24.315Z,100821.59
2022-09-15T15:05:24.755Z,100817.81
2022-09-15T15:07:52.523Z,100816.06
2022-09-15T15:10:32.195Z,100819.31
2022-09-15T15:13:12.891Z,100826.94
2022-09-15T15:15:40.354Z,100819.47
2022-09-15T15:18:36.440Z,100826.97
2022-09-15T15:21:04.162Z,100818.97
2022-09-15T15:23:32.883Z,100815.81
2022-09-15T15:26:36.506Z,100826.59
2022-09-15T15:29:07.067Z,100831.41
2022-09-15T15:31:38.378Z,100837.19
2022-09-15T15:34:21.373Z,100832.88
2022-09-15T15:36:48.532Z,100835.72
2022-09-15T15:39:25.085Z,100830.50
2022-09-15T15:42:06.778Z,100839.66
2022-09-15T15:44:34.082Z,100835.13
2022-09-15T15:47:27.426Z,100846.78
2022-09-15T15:50:12.930Z,100841.78
2022-09-15T15:52:41.639Z,100835.69
2022-09-15T15:55:13.449Z,100845.44
2022-09-15T15:57:40.868Z,100846.88
2022-09-15T16:00:26.024Z,100847.09
2022-09-15T16:02:53.389Z,100859.66
2022-09-15T16:05:25.434Z,100865.72
2022-09-15T16:07:54.072Z,100857.25
2022-09-15T16:10:27.343Z,100861.84
2022-09-15T16:12:54.362Z,100854.25
2022-09-15T16:15:22.798Z,100858.66
2022-09-15T16:17:49.937Z,100854.44
2022-09-15T16:20:17.320Z,100855.94
2022-09-15T16:22:44.363Z,100849.84
2022-09-15T16:25:52.604Z,100858.28
2022-09-15T16:28:20.116Z,100857.97
2022-09-15T16:30:48.973Z,100844.78
2022-09-15T16:33:18.896Z,100849.97
2022-09-15T16:36:03.839Z,100854.75
2022-09-15T16:38:30.937Z,100853.56
2022-09-15T16:40:58.265Z,100851.78
2022-09-15T16:43:25.630Z,100853.88
2022-09-15T16:45:53.189Z,100853.56
2022-09-15T16:48:20.936Z,100848.09
2022-09-15T16:51:16.137Z,100855.19
2022-09-15T16:53:39.587Z,100851.41
2022-09-15T16:56:10.611Z,100865.28
2022-09-15T16:58:38.421Z,100860.25
2022-09-15T17:01:06.374Z,100850.66
2022-09-15T17:03:34.161Z,100864.09
2022-09-15T17:06:02.183Z,100864.03
2022-09-15T17:08:32.638Z,100864.31
2022-09-15T17:11:05.135Z,100859.94
2022-09-15T17:13:34.332Z,100862.63
2022-09-15T17:16:02.439Z,100868.19
2022-09-15T17:18:29.999Z,100867.31
2022-09-15T17:20:57.421Z,100867.19
2022-09-15T17:23:34.772Z,100870.72
2022-09-15T17:26:05.776Z,100862.19
2022-09-15T17:28:36.543Z,100864.72
2022-09-15T17:31:12.028Z,100862.28
2022-09-15T17:33:39.412Z,100865.13
2022-09-15T17:36:07.089Z,100864.94
2022-09-15T17:38:34.203Z,100866.66
2022-09-15T17:41:01.354Z,100867.53
2022-09-15T17:43:31.980Z,100870.28
2022-09-15T17:45:59.205Z,100869.41
2022-09-15T17:48:26.477Z,100868.72
2022-09-15T17:50:53.864Z,100867.84
2022-09-15T17:53:26.871Z,100873.31
2022-09-15T17:55:55.718Z,100879.63
2022-09-15T17:58:26.317Z,100877.75
2022-09-15T18:00:57.311Z,100879.53
2022-09-15T18:03:28.211Z,100877.84
2022-09-15T18:06:00.634Z,100881.44
2022-09-15T18:08:28.063Z,100882.31
2022-09-15T18:10:55.605Z,100882.41
2022-09-15T18:13:27.278Z,100878.84
2022-09-15T18:15:55.018Z,100887.72
2022-09-15T18:18:27.650Z,100885.97
2022-09-15T18:20:57.987Z,100895.72
2022-09-15T18:23:28.395Z,100901.91
2022-09-15T18:25:55.843Z,100899.41
2022-09-15T18:28:23.063Z,100905.53
2022-09-15T18:30:50.837Z,100895.00
2022-09-15T18:33:22.510Z,100902.06
2022-09-15T18:35:54.244Z,100899.50
2022-09-15T18:38:25.359Z,100903.97
2022-09-15T18:40:56.331Z,100896.06
2022-09-15T18:43:26.470Z,100902.19
2022-09-15T18:45:59.225Z,100906.69
2022-09-15T18:48:26.481Z,100912.78
2022-09-15T18:50:53.644Z,100909.34
2022-09-15T18:53:20.814Z,100912.13
2022-09-15T18:55:49.087Z,100917.31
2022-09-15T18:58:16.205Z,100923.63
2022-09-15T19:00:45.861Z,100921.88
2022-09-15T19:03:14.240Z,100920.22
2022-09-15T19:05:41.798Z,100922.84
2022-09-15T19:08:09.256Z,100923.84
2022-09-15T19:10:38.413Z,100923.88
2022-09-15T19:13:05.693Z,100925.69
2022-09-15T19:15:34.679Z,100923.09
2022-09-15T19:18:02.165Z,100932.91
2022-09-15T19:20:30.055Z,100932.16
2022-09-15T19:22:58.443Z,100931.41
2022-09-15T19:25:25.511Z,100942.94
2022-09-15T19:27:52.525Z,100936.88
2022-09-15T19:30:19.690Z,100941.31
2022-09-15T19:32:46.698Z,100943.97
2022-09-15T19:35:13.780Z,100944.94
2022-09-15T19:37:42.592Z,100949.41
2022-09-15T19:40:14.175Z,100949.47
2022-09-15T19:42:43.640Z,100947.63
2022-09-15T19:45:13.041Z,100950.34
2022-09-15T19:47:40.759Z,100952.09
2022-09-15T19:50:09.624Z,100952.13
2022-09-15T19:52:36.963Z,100953.06
2022-09-15T19:55:07.694Z,100958.47
2022-09-15T19:57:38.750Z,100961.16
2022-09-15T20:00:08.759Z,100963.88
2022-09-15T20:02:35.775Z,100956.84
2022-09-15T20:05:03.391Z,100950.75
2022-09-15T20:07:32.101Z,100954.28
2022-09-15T20:09:59.218Z,100956.03
2022-09-15T20:12:26.930Z,100953.50
2022-09-15T20:14:57.014Z,100948.31
2022-09-15T20:17:24.080Z,100953.59
2022-09-15T20:19:51.474Z,100961.59
2022-09-15T20:22:18.691Z,100966.94
2022-09-15T20:24:45.993Z,100975.81
2022-09-15T20:27:13.092Z,100975.78
2022-09-15T20:29:40.440Z,100980.22
2022-09-15T20:32:07.678Z,100980.19
2022-09-15T20:34:34.801Z,100975.84
2022-09-15T20:37:02.045Z,100983.75
2022-09-15T20:39:29.221Z,100985.53
2022-09-15T20:41:58.353Z,100986.38
2022-09-15T20:44:26.387Z,100987.28
2022-09-15T20:46:53.604Z,100982.00
2022-09-15T20:49:20.629Z,100991.69
2022-09-15T20:51:47.672Z,100986.34
2022-09-15T20:54:15.074Z,100995.16
2022-09-15T20:56:42.145Z,100995.16
2022-09-15T20:59:13.804Z,101011.81
2022-09-15T21:01:41.058Z,101005.63
2022-09-15T21:04:10.107Z,101018.88
2022-09-15T21:06:38.043Z,101023.25
2022-09-15T21:09:06.083Z,101017.03
2022-09-15T21:11:33.286Z,101012.66
2022-09-15T21:14:01.163Z,101020.63
2022-09-15T21:16:30.100Z,101020.53
2022-09-15T21:18:58.859Z,101012.69
2022-09-15T21:21:30.793Z,101023.25
2022-09-15T21:24:04.721Z,101022.44
2022-09-15T21:27:01.176Z,101018.91
2022-09-15T21:29:29.188Z,101014.50
2022-09-15T21:31:56.715Z,101002.19
2022-09-15T21:34:24.227Z,101011.91
2022-09-15T21:36:53.572Z,101008.38
2022-09-15T21:39:21.293Z,101004.88
2022-09-15T21:41:48.442Z,101012.78
2022-09-15T21:44:16.249Z,101011.94
2022-09-15T21:46:45.001Z,101007.53
2022-09-15T21:49:12.028Z,101009.28
2022-09-15T21:51:39.271Z,101001.34
2022-09-15T21:54:06.358Z,101005.81
2022-09-15T21:56:33.910Z,101011.88
2022-09-15T21:59:03.341Z,101005.72
2022-09-15T22:01:33.163Z,101004.88
2022-09-15T22:04:03.873Z,100995.09
2022-09-15T22:06:35.275Z,100997.81
2022-09-15T22:09:06.831Z,101003.06
2022-09-15T22:11:35.629Z,101008.38
2022-09-15T22:14:08.658Z,101004.00
2022-09-15T22:16:38.703Z,101007.50
2022-09-15T22:19:08.251Z,101009.25
2022-09-15T22:21:41.925Z,101010.19
2022-09-15T22:24:13.443Z,101004.97
2022-09-15T22:26:42.806Z,101012.91
2022-09-15T22:29:10.454Z,101010.31
2022-09-15T22:31:38.292Z,101020.03
2022-09-15T22:34:05.888Z,101017.41
2022-09-15T22:36:34.108Z,101023.56
2022-09-15T22:39:06.200Z,101016.53
2022-09-15T22:41:36.972Z,101013.06
2022-09-15T22:44:05.783Z,101021.88
2022-09-15T22:46:34.653Z,101015.69
2022-09-15T22:49:02.141Z,101011.31
2022-09-15T22:51:29.328Z,101009.59
2022-09-15T22:53:57.592Z,101012.22
2022-09-15T22:56:26.663Z,101010.47
2022-09-15T22:58:55.195Z,101006.06
2022-09-15T23:01:29.978Z,101006.06
2022-09-15T23:04:02.030Z,101009.59
2022-09-15T23:06:32.778Z,101002.56
2022-09-15T23:09:03.717Z,101007.84
2022-09-15T23:11:34.740Z,101006.97
2022-09-15T23:14:02.641Z,101009.59
2022-09-15T23:16:31.622Z,101006.09
2022-09-15T23:18:59.718Z,101005.19
2022-09-15T23:21:28.125Z,101008.72
2022-09-15T23:23:55.771Z,101006.09
2022-09-15T23:26:24.269Z,101004.34
2022-09-15T23:28:52.114Z,100994.69
2022-09-15T23:31:21.054Z,101003.44
2022-09-15T23:33:48.797Z,101005.22
2022-09-15T23:36:19.867Z,101001.69
2022-09-15T23:38:48.127Z,100999.94
2022-09-15T23:41:17.595Z,100999.06
2022-09-15T23:43:45.278Z,100996.41
2022-09-15T23:46:13.066Z,100996.41
2022-09-15T23:48:40.536Z,100993.78
2022-09-15T23:51:08.107Z,100987.63
2022-09-15T23:53:35.510Z,100989.38
2022-09-15T23:56:03.186Z,100992.88
2022-09-15T23:58:30.402Z,100993.75
